createdAt,value
2024-02-10T00:03:25.279Z,98254.96
2024-02-10T00:08:28.932Z,98252.50
2024-02-10T00:13:36.340Z,98237.80
2024-02-10T00:18:42.183Z,98235.44
2024-02-10T00:23:45.509Z,98234.63
2024-02-10T00:28:49.949Z,98232.78
2024-02-10T00:33:52.531Z,98226.95
2024-02-10T00:38:55.039Z,98215.42
2024-02-10T00:43:57.498Z,98210.73
2024-02-10T00:49:01.601Z,98213.41
2024-02-10T00:54:05.698Z,98226.70
2024-02-10T00:59:10.969Z,98229.04
2024-02-10T01:04:13.524Z,98227.38
2024-02-10T01:09:16.227Z,98212.13
2024-02-10T01:14:18.685Z,98199.12
2024-02-10T01:19:21.615Z,98186.59
2024-02-10T01:24:28.865Z,98172.80
2024-02-10T01:29:31.462Z,98179.48
2024-02-10T01:34:34.869Z,98184.39
2024-02-10T01:39:37.355Z,98185.34
2024-02-10T01:44:44.254Z,98177.66
2024-02-10T01:49:46.857Z,98177.61
2024-02-10T01:54:49.897Z,98167.94
2024-02-10T01:59:52.505Z,98162.81
2024-02-10T02:04:58.172Z,98167.22
2024-02-10T02:10:01.777Z,98171.95
2024-02-10T02:15:07.003Z,98164.09
2024-02-10T02:20:11.405Z,98161.24
2024-02-10T02:25:14.094Z,98163.64
2024-02-10T02:30:17.319Z,98166.53
2024-02-10T02:35:19.998Z,98165.10
2024-02-10T02:40:25.742Z,98163.36
2024-02-10T02:45:29.092Z,98163.35
2024-02-10T02:50:32.406Z,98166.73
2024-02-10T02:55:34.940Z,98173.25
2024-02-10T03:00:39.645Z,98168.91
2024-02-10T03:05:42.345Z,98157.46
2024-02-10T03:10:44.827Z,98160.79
2024-02-10T03:15:47.501Z,98159.08
2024-02-10T03:20:49.923Z,98162.21
2024-02-10T03:26:00.287Z,98159.55
2024-02-10T03:31:03.193Z,98158.06
2024-02-10T03:36:06.264Z,98158.30
2024-02-10T03:41:14.479Z,98160.81
2024-02-10T03:46:18.103Z,98161.54
2024-02-10T03:51:20.659Z,98156.66
2024-02-10T03:56:27.955Z,98163.89
2024-02-10T04:01:30.916Z,98168.81
2024-02-10T04:06:33.491Z,98171.01
2024-02-10T04:11:35.951Z,98172.97
2024-02-10T04:16:42.884Z,98167.20
2024-02-10T04:21:47.832Z,98162.64
2024-02-10T04:26:50.490Z,98155.76
2024-02-10T04:32:00.149Z,98153.19
2024-02-10T04:37:02.909Z,98153.42
2024-02-10T04:42:07.343Z,98149.86
2024-02-10T04:47:10.899Z,98149.70
2024-02-10T04:52:13.308Z,98152.11
2024-02-10T04:57:15.854Z,98149.48
2024-02-10T05:02:18.686Z,98146.15
2024-02-10T05:07:21.246Z,98147.69
2024-02-10T05:12:24.041Z,98143.55
2024-02-10T05:17:26.526Z,98148.14
2024-02-10T05:22:30.320Z,98149.13
2024-02-10T05:27:33.076Z,98164.43
2024-02-10T05:32:35.783Z,98168.61
2024-02-10T05:37:39.872Z,98168.94
2024-02-10T05:42:44.588Z,98169.30
2024-02-10T05:47:48.488Z,98172.42
2024-02-10T05:52:52.869Z,98167.21
2024-02-10T05:57:57.445Z,98162.55
2024-02-10T06:03:01.275Z,98167.15
2024-02-10T06:08:04.783Z,98175.75
2024-02-10T06:13:07.931Z,98179.13
2024-02-10T06:18:10.610Z,98186.28
2024-02-10T06:23:13.005Z,98190.02
2024-02-10T06:28:17.988Z,98189.77
2024-02-10T06:33:20.486Z,98191.96
2024-02-10T06:38:22.968Z,98193.20
2024-02-10T06:43:26.834Z,98194.39
2024-02-10T06:48:31.079Z,98193.48
2024-02-10T06:53:33.772Z,98185.42
2024-02-10T06:58:36.298Z,98181.02
2024-02-10T07:03:38.734Z,98184.59
2024-02-10T07:08:41.753Z,98183.80
2024-02-10T07:13:44.221Z,98179.13
2024-02-10T07:18:47.970Z,98181.54
2024-02-10T07:23:51.495Z,98183.30
2024-02-10T07:28:54.811Z,98184.69
2024-02-10T07:34:00.064Z,98189.23
2024-02-10T07:39:09.738Z,98192.02
2024-02-10T07:44:14.320Z,98193.33
2024-02-10T07:49:22.321Z,98195.58
2024-02-10T07:54:25.091Z,98196.10
2024-02-10T07:59:27.650Z,98193.16
2024-02-10T08:04:30.161Z,98190.10
2024-02-10T08:09:32.649Z,98194.23
2024-02-10T08:14:37.570Z,98195.81
2024-02-10T08:19:40.720Z,98199.77
2024-02-10T08:24:44.516Z,98209.40
2024-02-10T08:29:47.199Z,98208.38
2024-02-10T08:34:51.075Z,98200.54
2024-02-10T08:39:53.586Z,98193.70
2024-02-10T08:44:56.031Z,98198.35
2024-02-10T08:49:58.561Z,98201.40
2024-02-10T08:55:05.221Z,98204.35
2024-02-10T09:00:09.802Z,98210.80
2024-02-10T09:05:12.366Z,98215.48
2024-02-10T09:10:16.161Z,98219.36
2024-02-10T09:15:18.576Z,98220.21
2024-02-10T09:20:22.301Z,98229.48
2024-02-10T09:25:27.258Z,98238.48
2024-02-10T09:30:44.210Z,98240.86
2024-02-10T09:35:46.696Z,98243.21
2024-02-10T09:40:57.995Z,98250.13
2024-02-10T09:46:07.826Z,98249.80
2024-02-10T09:51:10.438Z,98254.80
2024-02-10T09:56:14.897Z,98260.64
2024-02-10T10:01:17.805Z,98269.63
2024-02-10T10:06:21.806Z,98267.86
2024-02-10T10:11:24.371Z,98265.70
2024-02-10T10:16:26.830Z,98267.98
2024-02-10T10:21:31.664Z,98276.30
2024-02-10T10:26:34.244Z,98286.13
2024-02-10T10:31:39.643Z,98284.75
2024-02-10T10:36:44.712Z,98280.66
2024-02-10T10:41:47.433Z,98274.52
2024-02-10T10:46:52.992Z,98273.91
2024-02-10T10:52:05.751Z,98268.66
2024-02-10T10:57:17.942Z,98266.61
2024-02-10T11:02:29.994Z,98265.63
2024-02-10T11:07:46.131Z,98265.48
2024-02-10T11:12:48.773Z,98262.02
2024-02-10T11:17:58.804Z,98262.30
2024-02-10T11:23:22.109Z,98262.88
2024-02-10T11:28:25.012Z,98264.39
2024-02-10T11:33:27.697Z,98262.78
2024-02-10T11:38:30.409Z,98265.59
2024-02-10T11:43:35.903Z,98263.59
2024-02-10T11:48:38.402Z,98266.77
2024-02-10T11:53:45.843Z,98269.21
2024-02-10T11:58:48.645Z,98273.95
2024-02-10T12:03:51.931Z,98284.31
2024-02-10T12:08:55.588Z,98296.08
2024-02-10T12:13:58.090Z,98293.05
2024-02-10T12:19:02.451Z,98295.30
2024-02-10T12:24:05.581Z,98299.96
2024-02-10T12:29:14.110Z,98306.38
2024-02-10T12:34:18.514Z,98301.27
2024-02-10T12:39:21.155Z,98299.85
2024-02-10T12:44:23.778Z,98296.67
2024-02-10T12:49:27.827Z,98301.36
2024-02-10T12:54:31.435Z,98301.73
2024-02-10T12:59:34.718Z,98301.00
2024-02-10T13:04:37.710Z,98304.19
2024-02-10T13:09:40.283Z,98304.44
2024-02-10T13:14:42.800Z,98309.84
2024-02-10T13:19:45.507Z,98308.69
2024-02-10T13:24:48.042Z,98309.05
2024-02-10T13:29:51.261Z,98305.37
2024-02-10T13:40:20.079Z,98293.36
2024-02-10T13:45:38.516Z,98286.86
2024-02-10T13:50:55.939Z,98289.80
2024-02-10T13:56:14.425Z,98291.09
2024-02-10T14:01:19.825Z,98292.87
2024-02-10T14:06:33.672Z,98286.60
2024-02-10T14:11:39.390Z,98287.25
2024-02-10T14:16:44.408Z,98284.89
2024-02-10T14:21:49.409Z,98290.15
2024-02-10T14:27:02.126Z,98290.02
2024-02-10T14:32:14.275Z,98288.84
2024-02-10T14:37:28.710Z,98290.97
2024-02-10T14:42:35.210Z,98292.73
2024-02-10T14:47:37.956Z,98290.36
2024-02-10T14:52:42.907Z,98298.56
2024-02-10T14:57:45.405Z,98300.76
2024-02-10T15:02:48.817Z,98298.59
2024-02-10T15:07:51.390Z,98302.92
2024-02-10T15:12:55.591Z,98297.16
2024-02-10T15:18:01.636Z,98301.81
2024-02-10T15:23:04.462Z,98305.02
2024-02-10T15:28:15.297Z,98309.75
2024-02-10T15:33:19.713Z,98313.02
2024-02-10T15:38:23.976Z,98318.14
2024-02-10T15:43:27.970Z,98314.38
2024-02-10T15:48:31.340Z,98313.29
2024-02-10T15:53:33.816Z,98311.46
2024-02-10T15:58:37.918Z,98307.41
2024-02-10T16:03:41.982Z,98312.23
2024-02-10T16:08:46.293Z,98322.27
2024-02-10T16:13:48.955Z,98330.75
2024-02-10T16:18:51.532Z,98333.65
2024-02-10T16:23:55.082Z,98342.24
2024-02-10T16:28:58.162Z,98351.27
2024-02-10T16:34:01.253Z,98365.38
2024-02-10T16:39:10.557Z,98369.42
2024-02-10T16:44:13.168Z,98367.11
2024-02-10T16:49:16.329Z,98365.61
2024-02-10T16:54:19.074Z,98372.11
2024-02-10T16:59:23.378Z,98373.34
2024-02-10T17:04:28.182Z,98372.65
2024-02-10T17:09:30.946Z,98370.86
2024-02-10T17:14:33.563Z,98372.04
2024-02-10T17:19:37.691Z,98372.45
2024-02-10T17:24:42.821Z,98381.10
2024-02-10T17:29:46.423Z,98382.91
2024-02-10T17:34:52.736Z,98387.46
2024-02-10T17:39:56.750Z,98381.18
2024-02-10T17:45:00.682Z,98382.31
2024-02-10T17:50:07.478Z,98387.27
2024-02-10T17:55:10.601Z,98390.73
2024-02-10T18:00:17.005Z,98388.27
2024-02-10T18:05:28.121Z,98394.38
2024-02-10T18:10:30.727Z,98401.58
2024-02-10T18:15:33.325Z,98401.60
2024-02-10T18:20:35.848Z,98396.29
2024-02-10T18:25:43.372Z,98398.86
2024-02-10T18:30:47.646Z,98399.55
2024-02-10T18:35:50.348Z,98397.78
2024-02-10T18:40:52.989Z,98398.85
2024-02-10T18:45:55.507Z,98402.20
2024-02-10T18:50:58.294Z,98407.42
2024-02-10T18:56:05.620Z,98411.50
2024-02-10T19:01:08.477Z,98410.21
2024-02-10T19:06:10.970Z,98407.96
2024-02-10T19:11:13.451Z,98405.30
2024-02-10T19:16:17.322Z,98405.27
2024-02-10T19:21:20.487Z,98405.09
2024-02-10T19:26:23.027Z,98411.96
2024-02-10T19:31:25.763Z,98415.20
2024-02-10T19:36:30.984Z,98409.56
2024-02-10T19:41:33.601Z,98412.80
2024-02-10T19:46:37.427Z,98419.34
2024-02-10T19:51:43.016Z,98429.23
2024-02-10T19:56:48.818Z,98438.08
2024-02-10T20:01:52.536Z,98441.44
2024-02-10T20:06:57.280Z,98452.17
2024-02-10T20:12:01.363Z,98455.23
2024-02-10T20:17:08.935Z,98455.44
2024-02-10T20:22:14.414Z,98461.73
2024-02-10T20:27:18.361Z,98452.88
2024-02-10T20:32:23.415Z,98462.00
2024-02-10T20:37:26.737Z,98468.30
2024-02-10T20:42:29.436Z,98464.80
2024-02-10T20:47:39.352Z,98464.35
2024-02-10T20:52:42.033Z,98468.56
2024-02-10T20:57:48.744Z,98471.21
2024-02-10T21:02:51.245Z,98469.41
2024-02-10T21:07:53.753Z,98468.83
2024-02-10T21:12:56.603Z,98468.84
2024-02-10T21:18:04.390Z,98469.45
2024-02-10T21:23:07.288Z,98470.75
2024-02-10T21:28:10.269Z,98474.42
2024-02-10T21:33:13.546Z,98474.08
2024-02-10T21:38:16.325Z,98476.74
2024-02-10T21:43:21.883Z,98477.04
2024-02-10T21:48:24.420Z,98479.25
2024-02-10T21:53:27.071Z,98473.64
2024-02-10T21:58:29.721Z,98470.90
2024-02-10T22:03:32.418Z,98472.29
2024-02-10T22:08:34.948Z,98470.67
2024-02-10T22:13:37.784Z,98471.52
2024-02-10T22:18:42.969Z,98471.45
2024-02-10T22:23:47.234Z,98469.86
2024-02-10T22:28:49.837Z,98462.67
2024-02-10T22:33:54.092Z,98466.44
2024-02-10T22:38:56.665Z,98461.95
2024-02-10T22:44:00.585Z,98462.27
2024-02-10T22:49:04.270Z,98463.13
2024-02-10T22:54:07.010Z,98461.48
2024-02-10T22:59:13.616Z,98453.98
2024-02-10T23:04:16.362Z,98447.17
2024-02-10T23:09:19.453Z,98442.08
2024-02-10T23:14:25.627Z,98439.85
2024-02-10T23:19:30.967Z,98433.43
2024-02-10T23:24:33.520Z,98432.62
2024-02-10T23:29:38.472Z,98430.15
2024-02-10T23:34:42.366Z,98430.77
2024-02-10T23:39:46.188Z,98431.58
2024-02-10T23:44:49.434Z,98427.33
2024-02-10T23:49:54.693Z,98425.17
2024-02-10T23:54:58.733Z,98421.73
